Copper Center, AK (99573)

1:36 PM AKST on January 16, 2017 (GMT -0900)
Klutina River | | Change Station
Active Advisory: Winter Weather Advisory

Elev 1100 ft 61.95 °N, 145.32 °W | Updated 7 seconds ago

Snow
Snow
12.0 °F
Feels Like 12 °F
N
0.0
Wind Variable Wind from NW
Gusts 0.0 mph

Today
High -- | Low -- °F
--% Chance of Precip.
Yesterday
High -- | Low -- °F
Precip. -- in
Pressure 28.58 in
Visibility 3.0 miles
Clouds Mostly Cloudy 3000 ft
Overcast 3700 ft
Windchill 12 °F
Dew Point 10 °F
Humidity 93%
Rainfall 0.00 in
Snow Depth Not available.
9:42 AM 4:00 PM
Waning Gibbous, 78% visible
SPECI PAGK 162217Z AUTO 00000KT 3SM -SN BKN030 OVC037 M11/M14 A2858 RMK AO2 P0001 T11061144 TSNO $
Pressure 28.58 in
Visibility 3.0 miles
Clouds Mostly Cloudy 3000 ft
Overcast 3700 ft
Windchill 12 °F
Dew Point 10 °F
Humidity 93%
Rainfall 0.00 in
Snow Depth Not available.
9:42 AM 4:00 PM
Waning Gibbous, 78% visible
SPECI PAGK 162217Z AUTO 00000KT 3SM -SN BKN030 OVC037 M11/M14 A2858 RMK AO2 P0001 T11061144 TSNO $

Get Your Daily Forecast Email!

Thanks for signing up!

Be on the lookout for a verification email in your inbox.

You'll start receiving the daily forecast at 8 AM.

×

10-Day Weather Forecast

Almanac

Astronomy

Jan. 16, 2017 Rise Set
Actual Time
Civil Twilight
Nautical Twilight
Astronomical Twilight
Moon
Length of Visible Light
Length of Day
Tomorrow will be .
, % of the Moon is Illuminated

Today's Extremes

State Highs State Lows

Community

WunderPhotos

Upload Photos

1,962,540 photos uploaded!

WunderBlog® & News

Nearby

Air Quality

  Air Quality AQ Index Pollutant
Not available.

Snow Depth

Station Depth Elevation

Earthquake Activity

City Distance Mag. Time & Date
Minimum magnitude displayed is 2.5.

Coastal Water Temperatures

Place Temperature

Stations

Nearby Weather Stations

Station Location Temp. Windchill Dew Point Humidity Wind Precip. Elev Updated Type
                   

Watches & Warnings

Winter Weather Advisory
Issued: 12:03 PM AKST Jan. 16, 2017 – National Weather Service

... Winter Weather Advisory remains in effect until 4 PM akst this
afternoon...

* snow... storm total of 5 to 9 inches.

* Timing... snow will continue today... tapering off late in the
afternoon.

* Impacts... travel may be difficult. Visibilities will be
limited in heavy snowfall.

Precautionary/preparedness actions...

A Winter Weather Advisory for snow means that periods of snow
will cause primarily travel difficulties. Be prepared for snow
covered roads and limited visibilities... and use caution while
driving.